Aérodrome :
LOGIN :

S'inscrire | Disclaimer

   EN    FR    IT 

 










Légende :    VFR   VFR Marginal   IFR   IFR Intensif   IFR Très Intensif
Visi : 
Plafond : 
>= 8 km
>= 3000ft
5 à 8 km
1000 à 3000 ft
1500m à 5 km
500 à 1000 ft
800 à 1500m
200 à 500 ft
< 800m
< 200 ft
Symboles :   Orages  Brouillard  Fortes neiges  Fortes précipitations  Vent > 20 kt
SIGMETs :   Divers  Orages  Givrage  Turbulence  Onde Orograph.  Cendres Volcan.







- Altitude de l'aérodrome : 1521 ft
- Code IATA : NCY
- Voir les cartes d'approche


LFLP - Annecy

DERNIER METAR :
  • 141300Z AUTO 15004KT 110V180 9999 BKN046 OVC064 09/03 Q1006 NOSIG

METARs EXPIRÉS :
  • 141230Z AUTO 17009KT 140V200 9999 BKN041 BKN054 OVC068 09/03 Q1007 NOSIG
  • 141200Z AUTO VRB02KT 9999 -RA OVC040 09/04 Q1008 NOSIG
  • 141130Z AUTO VRB02KT 9999 BKN046 BKN062 BKN074 09/05 Q1008 NOSIG
  • 141100Z AUTO 00000KT 9999 FEW041 SCT064 BKN074 08/05 Q1009 TEMPO BKN014 BECMG 22010KT
  • 141030Z AUTO VRB03KT 9999 -RADZ FEW042 OVC054 08/05 Q1009 TEMPO BKN014

TAF TAF LFLP
Valide du 14 à 09h jusqu'au 15 à 09h UTC


140800Z 1409/1509 22010KT 9999 BKN045
TEMPO 1409/1412 BKN014
TEMPO 1420/1503 27015G35KT 4000 SHRA SCT012TCU BKN014
PROB40
TEMPO 1423/1501 SCT009CB
PROB30
TEMPO 1500/1503 1500 SHSN
Pas de NOTAMs connus pour ce terrain.
3 SIGMETs publiés pour la FIR Marseille (LFMM) :
 
Turbulence forte
LFMM SIGMET 7 VALID 141300/141500 LFPW
LFMM MARSEILLE FIR/UIR SEV TURB OBS AT 1300Z WI N4630 E00315 - N4630 E00530 - N4545 E00530 - N4600 E00315 - N4630 E00315 FL160/250 STNR NC=
Onde orographique forte
LFMM SIGMET 6 VALID 141300/141700 LFPW
LFMM MARSEILLE FIR/UIR SEV MTW FCST E OF E00845 SFC/FL320 STNR NC=
Turbulence forte
LFMM SIGMET 5 VALID 141000/141400 LFPW
LFMM MARSEILLE FIR/UIR SEV TURB FCST WI N4345 E00730 - N4315 E00945 - N4115 E00945 - N4115 E00845 - N4230 E00830 - N4300 E00630 - N4345 E00730 SFC/FL070 STNR NC=



MET'MAP, la Météo Aéronautique d'un coup d'oeil ! - Copyright ORBIFLY Décembre 2007 - Disclaimer

ORBIFLY MET'MAP TEAM :

Programmation & Développement : Alexandra Zaïnal
Conception & Développement : Baudouin d'Aumeries
Co-Programmation & Développement : Marc-Olivier Méhu
Soutien technique & logistique : Manuel Goepfert

Contact : metmap@orbifly.com




SOURCES & CREDITS :

   NOAA